Time;durP1;ratioP1;P1;durP2;ratioP2;P2;SDS_P1;SDS_P2;PMS_P1;PMS_P2;Temp;Humidity;BMP_temperature;BMP_pressure;BME280_temperature;BME280_humidity;BME280_pressure;Samples;Min_cycle;Max_cycle;Signal;HPM_P1;HPM_P2
2020/12/28 00:00:21;;;;;;;12.52;2.13;;;;;;;4.82;100.00;97695.41;5092241;28;20032;-65
2020/12/28 00:02:47;;;;;;;12.23;1.63;;;;;;;4.80;100.00;97693.00;5091172;28;20036;-65
2020/12/28 00:05:13;;;;;;;9.75;1.17;;;;;;;4.85;100.00;97705.66;5092527;28;20398;-66
2020/12/28 00:07:39;;;;;;;13.00;1.88;;;;;;;4.91;100.00;97709.16;5092003;28;20032;-64
2020/12/28 00:10:08;;;;;;;10.45;1.38;;;;;;;4.98;100.00;97721.25;5091975;28;20036;-66
2020/12/28 00:12:46;;;;;;;13.15;1.30;;;;;;;5.02;100.00;97716.88;5091754;28;20055;-65
2020/12/28 00:15:32;;;;;;;7.68;1.55;;;;;;;5.05;100.00;97719.03;5091912;28;20124;-65
2020/12/28 00:18:02;;;;;;;20.40;2.00;;;;;;;5.04;100.00;97725.53;5091521;28;20051;-65
2020/12/28 00:20:30;;;;;;;9.73;1.05;;;;;;;4.98;100.00;97710.44;5091639;28;20113;-64
2020/12/28 00:22:57;;;;;;;14.73;2.08;;;;;;;4.96;100.00;97696.38;5091791;28;20197;-64
2020/12/28 00:25:26;;;;;;;11.88;1.40;;;;;;;4.93;100.00;97691.56;5091806;28;20044;-65
2020/12/28 00:27:52;;;;;;;13.73;1.77;;;;;;;4.93;100.00;97691.56;5091518;28;20078;-65
2020/12/28 00:30:18;;;;;;;16.98;2.28;;;;;;;4.93;100.00;97688.84;5091611;28;20036;-64
2020/12/28 00:32:44;;;;;;;17.45;1.80;;;;;;;4.93;100.00;97686.16;5091976;28;20390;-65
2020/12/28 00:35:10;;;;;;;13.02;3.03;;;;;;;4.90;100.00;97689.41;5090375;28;20032;-64
2020/12/28 00:37:37;;;;;;;13.85;1.95;;;;;;;4.86;100.00;97685.66;5091443;28;20035;-64
2020/12/28 00:40:05;;;;;;;19.63;3.35;;;;;;;4.83;100.00;97687.00;5091472;28;20028;-64
2020/12/28 00:42:31;;;;;;;17.67;2.75;;;;;;;4.80;100.00;97687.59;5091640;28;20039;-65
2020/12/28 00:44:57;;;;;;;19.42;2.42;;;;;;;4.78;100.00;97686.25;5091288;28;20506;-65
2020/12/28 00:47:23;;;;;;;21.08;3.00;;;;;;;4.76;100.00;97691.94;5091263;28;20117;-67
2020/12/28 00:49:48;;;;;;;17.85;2.75;;;;;;;4.76;100.00;97691.16;5091881;28;20037;-65
2020/12/28 00:52:14;;;;;;;16.00;2.53;;;;;;;4.76;100.00;97685.75;5091506;28;20040;-64
2020/12/28 00:54:39;;;;;;;15.35;2.30;;;;;;;4.77;100.00;97692.75;5091186;28;20036;-65
2020/12/28 00:57:05;;;;;;;15.07;2.20;;;;;;;4.76;100.00;97693.84;5091231;28;20107;-66
2020/12/28 00:59:30;;;;;;;12.15;2.33;;;;;;;4.77;100.00;97681.94;5091263;28;20565;-65
2020/12/28 01:01:58;;;;;;;14.43;2.28;;;;;;;4.78;100.00;97683.56;5091147;28;20213;-65
2020/12/28 01:04:27;;;;;;;22.98;2.55;;;;;;;4.81;100.00;97682.97;5091079;28;20036;-65
2020/12/28 01:06:52;;;;;;;19.85;2.65;;;;;;;4.83;100.00;97676.19;5091114;28;20036;-65
2020/12/28 01:09:19;;;;;;;27.25;2.42;;;;;;;4.86;100.00;97680.25;5091223;28;20050;-64
2020/12/28 01:11:44;;;;;;;19.80;2.25;;;;;;;4.89;100.00;97674.28;5091184;28;20036;-65
2020/12/28 01:14:11;;;;;;;22.27;3.25;;;;;;;4.92;100.00;97673.72;5090750;28;20086;-65
2020/12/28 01:16:37;;;;;;;25.10;2.15;;;;;;;4.96;100.00;97669.34;5091436;28;20434;-64
2020/12/28 01:19:03;;;;;;;19.17;2.35;;;;;;;4.99;100.00;97666.06;5090779;28;20539;-65
2020/12/28 01:21:29;;;;;;;11.48;1.75;;;;;;;5.04;100.00;97655.22;5090918;28;20072;-65
2020/12/28 01:23:55;;;;;;;19.38;2.60;;;;;;;5.08;100.00;97650.84;5090775;28;20178;-65
2020/12/28 01:26:21;;;;;;;16.40;2.47;;;;;;;5.13;100.00;97658.91;5090846;28;20052;-64
2020/12/28 01:28:46;;;;;;;15.85;2.33;;;;;;;5.19;100.00;97656.16;5090774;28;20043;-65
2020/12/28 01:31:12;;;;;;;19.17;2.28;;;;;;;5.26;100.00;97651.22;5089716;28;20144;-66
2020/12/28 01:33:42;;;;;;;12.32;2.30;;;;;;;5.31;100.00;97645.75;5105532;28;20044;-64
2020/12/28 01:36:08;;;;;;;18.45;2.08;;;;;;;5.36;100.00;97641.09;5090826;28;20028;-65
2020/12/28 01:38:34;;;;;;;14.32;2.70;;;;;;;5.39;100.00;97639.75;5091012;28;20446;-65
2020/12/28 01:41:00;;;;;;;20.48;2.72;;;;;;;5.39;100.00;97626.22;5090760;28;20032;-65
2020/12/28 01:43:31;;;;;;;22.85;2.50;;;;;;;5.38;100.00;97621.88;5123443;28;20036;-64
2020/12/28 01:46:00;;;;;;;17.73;2.55;;;;;;;5.34;100.00;97610.81;5090656;28;20425;-65
2020/12/28 01:48:30;;;;;;;18.10;2.92;;;;;;;5.30;100.00;97619.81;5090621;28;20069;-65
2020/12/28 01:50:57;;;;;;;15.43;1.98;;;;;;;5.26;100.00;97626.88;5090719;28;20043;-65
2020/12/28 01:53:23;;;;;;;20.10;2.28;;;;;;;5.23;100.00;97616.66;5090667;28;20028;-64
2020/12/28 01:55:54;;;;;;;16.42;2.63;;;;;;;5.21;100.00;97618.84;5090777;28;20043;-64
2020/12/28 01:58:21;;;;;;;20.63;3.05;;;;;;;5.18;100.00;97605.84;5090531;28;20478;-66
2020/12/28 02:00:47;;;;;;;16.70;3.33;;;;;;;5.19;100.00;97596.66;5090540;28;20032;-65
2020/12/28 02:03:13;;;;;;;19.83;2.45;;;;;;;5.20;100.00;97587.44;5090777;28;20036;-65
2020/12/28 02:05:39;;;;;;;23.05;2.88;;;;;;;5.22;100.00;97579.88;5090537;28;20149;-64
2020/12/28 02:08:05;;;;;;;19.00;2.33;;;;;;;5.27;100.00;97561.66;5090410;28;20549;-65
2020/12/28 02:10:31;;;;;;;24.10;3.17;;;;;;;5.32;100.00;97558.09;5090576;28;20068;-64
2020/12/28 02:12:56;;;;;;;21.83;1.98;;;;;;;5.34;100.00;97562.13;5090380;28;20101;-65
2020/12/28 02:15:22;;;;;;;18.25;3.15;;;;;;;5.40;100.00;97571.81;5090390;28;20032;-66
2020/12/28 02:17:48;;;;;;;24.80;2.47;;;;;;;5.44;100.00;97556.59;5090322;28;20036;-65
2020/12/28 02:20:13;;;;;;;27.38;2.13;;;;;;;5.51;100.00;97550.81;5090480;28;20040;-65
2020/12/28 02:22:40;;;;;;;19.20;2.92;;;;;;;5.61;100.00;97549.91;5090273;28;20147;-65
2020/12/28 02:25:06;;;;;;;18.75;2.40;;;;;;;5.68;100.00;97543.00;5088984;28;20059;-65
2020/12/28 02:27:31;;;;;;;21.67;2.97;;;;;;;5.71;100.00;97545.13;5091788;28;20047;-65
2020/12/28 02:29:57;;;;;;;38.63;2.95;;;;;;;5.77;100.00;97545.91;5093865;28;20032;-65
2020/12/28 02:32:23;;;;;;;16.83;2.58;;;;;;;5.84;100.00;97545.53;5093860;28;20576;-64
2020/12/28 02:34:48;;;;;;;16.88;2.58;;;;;;;5.94;100.00;97548.94;5093897;28;20622;-65
2020/12/28 02:37:14;;;;;;;22.92;3.40;;;;;;;6.02;100.00;97550.16;5094085;28;20100;-65
2020/12/28 02:39:39;;;;;;;24.73;3.33;;;;;;;6.07;100.00;97531.13;5093727;28;20435;-65
2020/12/28 02:42:05;;;;;;;23.70;3.03;;;;;;;6.13;100.00;97524.53;5093802;28;20398;-64
2020/12/28 02:44:30;;;;;;;32.38;3.13;;;;;;;6.18;100.00;97515.53;5092271;28;20048;-65
2020/12/28 02:46:56;;;;;;;25.15;2.88;;;;;;;6.21;100.00;97504.09;5093786;28;20055;-65
2020/12/28 02:49:21;;;;;;;25.38;3.63;;;;;;;6.20;100.00;97503.28;5093445;28;20047;-66
2020/12/28 02:51:47;;;;;;;23.25;3.67;;;;;;;6.23;100.00;97483.72;5093552;28;20162;-65
2020/12/28 02:54:13;;;;;;;27.75;4.22;;;;;;;6.24;100.00;97482.63;5093479;28;20048;-65
2020/12/28 02:56:38;;;;;;;26.73;4.38;;;;;;;6.27;100.00;97471.22;5093421;28;20040;-65
2020/12/28 02:59:04;;;;;;;43.28;5.57;;;;;;;6.34;100.00;97473.53;5093285;28;20047;-65
2020/12/28 03:01:30;;;;;;;33.55;5.18;;;;;;;6.41;100.00;97470.44;5093428;28;20142;-65
2020/12/28 03:03:55;;;;;;;40.60;4.68;;;;;;;6.44;100.00;97453.59;5093286;28;20036;-65
2020/12/28 03:06:21;;;;;;;33.88;4.38;;;;;;;6.50;100.00;97449.69;5093143;28;20048;-64
2020/12/28 03:08:46;;;;;;;39.92;6.05;;;;;;;6.55;100.00;97433.31;5093236;28;20040;-65
2020/12/28 03:11:12;;;;;;;47.40;5.43;;;;;;;6.60;100.00;97425.91;5093270;28;20044;-64
2020/12/28 03:13:38;;;;;;;45.08;6.40;;;;;;;6.66;100.00;97418.47;5093132;28;20051;-65
2020/12/28 03:16:04;;;;;;;41.17;4.45;;;;;;;6.73;100.00;97397.19;5093188;28;20043;-64
2020/12/28 03:18:30;;;;;;;38.92;5.82;;;;;;;6.79;100.00;97393.28;5092892;28;20039;-65
2020/12/28 03:20:56;;;;;;;44.22;5.97;;;;;;;6.85;100.00;97383.94;5092712;27;20417;-64
2020/12/28 03:23:21;;;;;;;41.13;5.70;;;;;;;6.90;100.00;97381.09;5092856;28;20040;-65
2020/12/28 03:25:47;;;;;;;36.25;6.18;;;;;;;6.98;100.00;97365.22;5092814;28;20040;-65
2020/12/28 03:28:13;;;;;;;37.65;6.03;;;;;;;7.02;100.00;97355.38;5092677;28;20044;-64
2020/12/28 03:30:39;;;;;;;29.73;6.03;;;;;;;7.05;100.00;97355.56;5092786;28;20089;-66
2020/12/28 03:33:04;;;;;;;33.80;5.22;;;;;;;7.11;100.00;97331.81;5093125;28;20043;-65
2020/12/28 03:35:30;;;;;;;39.72;5.20;;;;;;;7.13;100.00;97356.78;5092814;28;20093;-65
2020/12/28 03:37:55;;;;;;;39.08;4.65;;;;;;;7.17;100.00;97357.75;5092308;28;20051;-64
2020/12/28 03:40:21;;;;;;;36.60;4.80;;;;;;;7.23;100.00;97370.09;5092569;28;20141;-65
2020/12/28 03:42:47;;;;;;;35.22;4.63;;;;;;;7.30;100.00;97345.25;5092538;28;20039;-65
2020/12/28 03:45:12;;;;;;;29.15;5.70;;;;;;;7.35;100.00;97364.94;5092410;28;20044;-65
2020/12/28 03:47:38;;;;;;;35.80;5.20;;;;;;;7.41;100.00;97352.84;5092384;28;20051;-66
2020/12/28 03:50:03;;;;;;;33.08;4.68;;;;;;;7.46;100.00;97309.31;5092352;28;20130;-65
2020/12/28 03:52:29;;;;;;;31.15;5.45;;;;;;;7.51;100.00;97325.47;5092322;28;20046;-65
2020/12/28 03:54:55;;;;;;;37.85;5.07;;;;;;;7.64;100.00;97344.75;5091144;28;20036;-64
2020/12/28 03:57:20;;;;;;;30.13;4.10;;;;;;;7.65;100.00;97346.34;5092193;28;20040;-64
2020/12/28 03:59:46;;;;;;;34.97;5.85;;;;;;;7.65;100.00;97357.19;5092156;28;20040;-64
2020/12/28 04:02:12;;;;;;;34.92;5.55;;;;;;;7.49;100.00;97349.41;5090847;28;20089;-64
2020/12/28 04:04:37;;;;;;;21.52;3.72;;;;;;;7.11;100.00;97375.25;5092121;28;20036;-64
2020/12/28 04:07:03;;;;;;;10.60;1.50;;;;;;;6.39;100.00;97384.00;5091978;28;20092;-64
2020/12/28 04:09:29;;;;;;;6.97;1.30;;;;;;;5.93;100.00;97400.28;5091893;28;20047;-64
2020/12/28 04:11:54;;;;;;;13.60;1.33;;;;;;;5.72;100.00;97378.91;5091970;28;20047;-63
2020/12/28 04:14:20;;;;;;;8.20;1.55;;;;;;;5.56;100.00;97391.09;5091923;28;20032;-63
2020/12/28 04:16:45;;;;;;;3.83;0.57;;;;;;;5.37;100.00;97387.56;5091939;28;20138;-64
2020/12/28 04:19:11;;;;;;;5.43;1.02;;;;;;;5.26;100.00;97386.13;5091766;28;20043;-63
2020/12/28 04:21:36;;;;;;;3.97;0.68;;;;;;;5.19;100.00;97385.66;5091705;28;20140;-63
2020/12/28 04:24:02;;;;;;;4.22;0.45;;;;;;;5.09;100.00;97390.13;5091588;28;20047;-64
2020/12/28 04:26:27;;;;;;;4.53;0.57;;;;;;;5.02;100.00;97397.78;5091797;28;20040;-64
2020/12/28 04:28:53;;;;;;;4.63;0.35;;;;;;;4.92;100.00;97375.50;5091475;28;20042;-64
2020/12/28 04:31:19;;;;;;;4.43;0.38;;;;;;;4.87;100.00;97379.09;5091737;28;20028;-64
2020/12/28 04:33:45;;;;;;;2.33;0.60;;;;;;;4.84;100.00;97363.41;5091609;28;20040;-63
2020/12/28 04:36:11;;;;;;;4.28;0.60;;;;;;;4.79;100.00;97360.78;5091582;28;20036;-64
2020/12/28 04:38:36;;;;;;;7.28;1.17;;;;;;;4.76;100.00;97345.16;5091420;28;20092;-64
2020/12/28 04:41:02;;;;;;;4.13;0.50;;;;;;;4.74;100.00;97344.66;5091464;28;20036;-64
2020/12/28 04:43:28;;;;;;;2.88;0.60;;;;;;;4.72;100.00;97344.13;5091315;28;20039;-65
2020/12/28 04:45:58;;;;;;;4.43;0.60;;;;;;;4.72;100.00;97344.13;5091356;28;20044;-64
2020/12/28 04:48:24;;;;;;;3.80;0.40;;;;;;;4.71;100.00;97343.34;5089952;28;20370;-64
2020/12/28 04:50:50;;;;;;;2.90;0.32;;;;;;;4.69;100.00;97337.41;5089982;28;20048;-64
2020/12/28 04:53:16;;;;;;;2.70;0.45;;;;;;;4.67;100.00;97331.47;5091337;28;20035;-63
2020/12/28 04:55:42;;;;;;;3.95;0.50;;;;;;;4.65;100.00;97332.84;5091225;28;20465;-63
2020/12/28 04:58:07;;;;;;;2.58;0.55;;;;;;;4.62;100.00;97328.03;5090968;28;20096;-65
2020/12/28 05:00:33;;;;;;;3.05;0.40;;;;;;;4.58;100.00;97332.41;5091162;28;20092;-65
2020/12/28 05:02:59;;;;;;;3.13;0.50;;;;;;;4.54;100.00;97321.38;5091141;28;20081;-64
2020/12/28 05:05:24;;;;;;;2.65;0.60;;;;;;;4.50;100.00;97315.72;5091309;28;20040;-64
2020/12/28 05:07:51;;;;;;;1.90;0.40;;;;;;;4.45;100.00;97307.69;5091151;28;20052;-64
2020/12/28 05:10:25;;;;;;;1.85;0.30;;;;;;;4.42;100.00;97304.78;5091615;28;20370;-64
2020/12/28 05:12:50;;;;;;;3.40;0.30;;;;;;;4.40;100.00;97305.06;5091020;28;20039;-64
2020/12/28 05:15:16;;;;;;;3.22;0.50;;;;;;;4.41;100.00;97290.47;5090958;28;20269;-64
2020/12/28 05:17:41;;;;;;;8.23;0.52;;;;;;;4.41;100.00;97285.06;5090847;28;20036;-64
2020/12/28 05:20:07;;;;;;;1.77;0.38;;;;;;;4.41;100.00;97282.38;5091035;28;20059;-63
2020/12/28 05:22:33;;;;;;;3.40;0.40;;;;;;;4.44;100.00;97279.06;5090911;28;20073;-64
2020/12/28 05:24:59;;;;;;;3.83;0.55;;;;;;;4.45;100.00;97274.47;5090931;28;20466;-64
2020/12/28 05:27:25;;;;;;;2.80;0.30;;;;;;;4.44;100.00;97281.78;5090878;28;20447;-65
2020/12/28 05:29:50;;;;;;;2.38;0.40;;;;;;;4.43;100.00;97276.66;5090802;28;20065;-64
2020/12/28 05:32:17;;;;;;;2.58;0.40;;;;;;;4.42;100.00;97267.75;5090823;28;20032;-65
2020/12/28 05:34:45;;;;;;;4.85;0.50;;;;;;;4.41;100.00;97263.44;5090794;28;20032;-65
2020/12/28 05:37:13;;;;;;;3.53;0.40;;;;;;;4.41;100.00;97258.06;5090777;28;20119;-65
2020/12/28 05:39:43;;;;;;;4.72;0.50;;;;;;;4.43;100.00;97255.88;5091302;28;20050;-64
2020/12/28 05:42:10;;;;;;;4.30;0.65;;;;;;;4.43;100.00;97255.88;5091072;28;20363;-63
2020/12/28 05:44:41;;;;;;;3.05;0.60;;;;;;;4.43;100.00;97244.25;5090694;28;20039;-64
2020/12/28 05:47:12;;;;;;;2.35;0.43;;;;;;;4.44;100.00;97246.66;5090689;28;20048;-64
2020/12/28 05:49:48;;;;;;;3.13;0.63;;;;;;;4.45;100.00;97237.47;5090691;28;20036;-64
2020/12/28 05:52:15;;;;;;;4.30;0.70;;;;;;;4.47;100.00;97224.47;5090627;28;20440;-64
2020/12/28 05:54:41;;;;;;;5.20;0.65;;;;;;;4.49;100.00;97233.06;5090723;28;20129;-64
2020/12/28 05:57:08;;;;;;;4.38;1.02;;;;;;;4.50;100.00;97225.78;5090793;28;20043;-64
2020/12/28 05:59:36;;;;;;;4.68;0.75;;;;;;;4.52;100.00;97229.81;5090719;28;20400;-64
2020/12/28 06:02:02;;;;;;;5.97;1.92;;;;;;;4.53;100.00;97227.91;5092609;28;20044;-64
2020/12/28 06:04:28;;;;;;;6.03;1.05;;;;;;;4.56;100.00;97226.53;5094309;28;20089;-64
2020/12/28 06:06:59;;;;;;;10.52;1.08;;;;;;;4.57;100.00;97236.25;5094248;28;20111;-64
2020/12/28 06:09:24;;;;;;;8.02;1.73;;;;;;;4.57;100.00;97234.34;5094370;28;20032;-64
2020/12/28 06:12:01;;;;;;;8.75;1.38;;;;;;;4.59;100.00;97231.34;5094685;28;20436;-65
2020/12/28 06:14:36;;;;;;;5.70;0.82;;;;;;;4.59;100.00;97225.94;5094372;28;20081;-65
2020/12/28 06:17:05;;;;;;;4.80;0.90;;;;;;;4.61;100.00;97235.34;5094184;28;20036;-65
2020/12/28 06:19:31;;;;;;;9.85;1.20;;;;;;;4.63;100.00;97232.34;5093961;28;20047;-63
2020/12/28 06:21:56;;;;;;;4.68;0.80;;;;;;;4.64;100.00;97223.16;5093970;28;20048;-65
2020/12/28 06:24:30;;;;;;;6.72;1.05;;;;;;;4.64;100.00;97218.56;5093968;28;20386;-64
2020/12/28 06:27:03;;;;;;;6.43;1.10;;;;;;;4.65;100.00;97211.25;5094030;28;20032;-65
2020/12/28 06:29:29;;;;;;;4.97;1.23;;;;;;;4.65;100.00;97208.53;5094086;28;20040;-64
2020/12/28 06:31:55;;;;;;;4.75;1.50;;;;;;;4.63;100.00;97194.53;5093935;28;20040;-64
2020/12/28 06:34:21;;;;;;;14.90;1.95;;;;;;;4.61;100.00;97191.31;5093829;28;20024;-64
2020/12/28 06:36:59;;;;;;;7.53;0.88;;;;;;;4.58;100.00;97189.22;5093830;28;20032;-64
2020/12/28 06:39:25;;;;;;;7.97;1.20;;;;;;;4.55;100.00;97187.91;5093833;28;20114;-64
2020/12/28 06:41:50;;;;;;;7.35;1.30;;;;;;;4.51;100.00;97193.09;5093830;28;20274;-65
2020/12/28 06:44:26;;;;;;;10.82;2.10;;;;;;;4.50;100.00;97199.56;5092384;28;20504;-65
2020/12/28 06:46:53;;;;;;;9.75;1.77;;;;;;;4.48;100.00;97209.84;5075813;28;20040;-65
2020/12/28 06:49:19;;;;;;;11.30;1.02;;;;;;;4.49;100.00;97211.47;5093468;28;20081;-64
2020/12/28 06:51:44;;;;;;;9.65;1.65;;;;;;;4.51;100.00;97209.31;5092140;28;20442;-64
2020/12/28 06:54:10;;;;;;;13.30;1.30;;;;;;;4.52;100.00;97216.31;5093513;28;20130;-65
2020/12/28 06:56:36;;;;;;;9.52;2.00;;;;;;;4.54;100.00;97224.91;5093450;28;20527;-64
2020/12/28 06:59:02;;;;;;;11.15;1.48;;;;;;;4.54;100.00;97224.91;5093319;28;20398;-63
2020/12/28 07:01:28;;;;;;;9.60;1.38;;;;;;;4.56;100.00;97242.75;5093591;28;20080;-64
2020/12/28 07:03:57;;;;;;;18.30;1.60;;;;;;;4.61;100.00;97261.56;5093591;28;20032;-64
2020/12/28 07:06:23;;;;;;;10.07;1.83;;;;;;;4.69;100.00;97263.63;5093247;28;20097;-64
2020/12/28 07:08:48;;;;;;;10.82;0.80;;;;;;;4.76;100.00;97274.88;5093008;28;20478;-64
2020/12/28 07:11:20;;;;;;;11.88;1.48;;;;;;;4.80;100.00;97282.09;5093152;28;20068;-63
2020/12/28 07:13:47;;;;;;;12.48;1.40;;;;;;;4.82;100.00;97273.69;5092584;28;20085;-64
2020/12/28 07:16:13;;;;;;;12.35;1.80;;;;;;;4.83;100.00;97257.19;5093197;28;20036;-65
2020/12/28 07:18:38;;;;;;;8.95;1.70;;;;;;;4.86;100.00;97263.94;5092981;28;20047;-65
2020/12/28 07:21:05;;;;;;;9.27;1.35;;;;;;;4.91;100.00;97260.34;5092902;28;20139;-63
2020/12/28 07:23:32;;;;;;;13.40;1.25;;;;;;;4.96;100.00;97263.75;5092921;28;20093;-63
2020/12/28 07:26:09;;;;;;;11.38;1.38;;;;;;;5.02;100.00;97262.56;5107509;28;20087;-64
2020/12/28 07:28:38;;;;;;;14.07;1.95;;;;;;;5.08;100.00;97261.44;5092681;28;20042;-64
2020/12/28 07:31:05;;;;;;;9.50;1.00;;;;;;;5.13;100.00;97263.25;5092995;28;20447;-64
2020/12/28 07:33:32;;;;;;;7.22;1.25;;;;;;;5.17;100.00;97247.22;5092987;28;20052;-64
2020/12/28 07:36:12;;;;;;;12.65;1.27;;;;;;;5.19;100.00;97261.25;5092818;28;20386;-65
2020/12/28 07:38:45;;;;;;;10.55;0.82;;;;;;;5.21;100.00;97259.06;5093008;28;20031;-64
2020/12/28 07:41:15;;;;;;;5.15;0.82;;;;;;;5.24;100.00;97274.72;5091384;28;20036;-64
2020/12/28 07:43:51;;;;;;;7.07;1.60;;;;;;;5.26;100.00;97275.22;5092477;28;20032;-64
2020/12/28 07:46:34;;;;;;;8.32;0.88;;;;;;;5.28;100.00;97259.50;5092418;28;20478;-65
2020/12/28 07:49:21;;;;;;;4.55;0.80;;;;;;;5.30;100.00;97262.69;5092502;28;20055;-64
2020/12/28 07:51:50;;;;;;;7.45;1.25;;;;;;;5.29;100.00;97247.56;5092612;28;20081;-63
2020/12/28 07:54:21;;;;;;;4.40;0.77;;;;;;;5.31;100.00;97256.19;5092362;28;20059;-63
2020/12/28 07:56:51;;;;;;;5.95;0.60;;;;;;;5.32;100.00;97255.09;5092216;28;20154;-64
2020/12/28 07:59:28;;;;;;;5.38;0.73;;;;;;;5.32;100.00;97276.72;5092151;28;20053;-64
2020/12/28 08:01:56;;;;;;;6.38;0.65;;;;;;;5.32;100.00;97287.56;5092196;28;20042;-63
2020/12/28 08:04:23;;;;;;;5.60;0.68;;;;;;;5.32;100.00;97288.34;5092156;28;20424;-63
2020/12/28 08:06:49;;;;;;;4.65;0.70;;;;;;;5.31;100.00;97299.47;5092124;28;20042;-64
2020/12/28 08:09:21;;;;;;;4.97;0.65;;;;;;;5.29;100.00;97298.97;5092175;28;20071;-64
2020/12/28 08:11:57;;;;;;;7.70;0.70;;;;;;;5.27;100.00;97285.75;5092122;28;20483;-65
2020/12/28 08:14:22;;;;;;;7.75;0.85;;;;;;;5.26;100.00;97311.19;5091975;28;20024;-64
2020/12/28 08:16:48;;;;;;;4.60;0.65;;;;;;;5.27;100.00;97303.88;5091822;28;20042;-63
2020/12/28 08:19:29;;;;;;;7.30;0.90;;;;;;;5.28;100.00;97300.06;5091779;28;20039;-64
2020/12/28 08:21:55;;;;;;;10.00;1.10;;;;;;;5.30;100.00;97295.16;5091819;28;20040;-64
2020/12/28 08:24:22;;;;;;;11.10;2.13;;;;;;;5.32;100.00;97292.97;5090973;28;20425;-64
2020/12/28 08:26:49;;;;;;;10.85;1.30;;;;;;;5.38;100.00;97292.59;5090360;28;20417;-64
2020/12/28 08:29:15;;;;;;;6.80;1.42;;;;;;;5.42;100.00;97298.22;5091817;28;20501;-63
2020/12/28 08:31:41;;;;;;;12.60;2.05;;;;;;;5.47;100.00;97290.00;5091637;28;20035;-64
2020/12/28 08:34:09;;;;;;;12.10;1.58;;;;;;;5.51;100.00;97295.63;5091562;28;20093;-64
2020/12/28 08:36:52;;;;;;;10.68;1.40;;;;;;;5.53;100.00;97302.34;5091561;28;20114;-64
2020/12/28 08:39:20;;;;;;;8.68;1.58;;;;;;;5.60;100.00;97321.72;5091647;28;20040;-64
2020/12/28 08:41:50;;;;;;;14.27;1.48;;;;;;;5.63;100.00;97337.38;5091797;28;20085;-64
2020/12/28 08:44:31;;;;;;;11.57;1.48;;;;;;;5.69;100.00;97347.00;5091323;28;20036;-64
2020/12/28 08:46:58;;;;;;;12.20;1.63;;;;;;;5.73;100.00;97358.06;5091364;28;20032;-64
2020/12/28 08:49:28;;;;;;;5.90;0.88;;;;;;;5.69;100.00;97338.88;5091245;28;20493;-64
2020/12/28 08:51:55;;;;;;;4.63;0.63;;;;;;;5.65;100.00;97343.28;5091418;28;20035;-64
2020/12/28 08:54:28;;;;;;;4.43;0.50;;;;;;;5.61;100.00;97361.22;5091412;28;20036;-65
2020/12/28 08:56:54;;;;;;;3.22;0.50;;;;;;;5.55;100.00;97319.09;5091393;28;20473;-63
2020/12/28 08:59:20;;;;;;;2.50;0.45;;;;;;;5.52;100.00;97352.16;5091311;28;20482;-63
2020/12/28 09:01:51;;;;;;;3.15;0.75;;;;;;;5.45;100.00;97357.97;5091363;28;20032;-63
2020/12/28 09:04:17;;;;;;;6.38;0.60;;;;;;;5.40;100.00;97349.94;5091307;28;20039;-64
2020/12/28 09:06:42;;;;;;;5.40;0.70;;;;;;;5.39;100.00;97358.34;5091404;28;20044;-64
2020/12/28 09:09:08;;;;;;;3.55;0.75;;;;;;;5.36;100.00;97364.31;5091260;28;20040;-63
2020/12/28 09:11:34;;;;;;;6.55;0.70;;;;;;;5.36;100.00;97364.31;5091491;28;20044;-64
2020/12/28 09:14:00;;;;;;;3.25;0.88;;;;;;;5.36;100.00;97359.72;5091540;28;20123;-64
2020/12/28 09:16:26;;;;;;;7.13;0.80;;;;;;;5.39;100.00;97369.16;5091274;28;20504;-64
2020/12/28 09:18:51;;;;;;;4.63;0.60;;;;;;;5.41;100.00;97372.38;5091138;28;20038;-64
2020/12/28 09:21:17;;;;;;;9.00;1.00;;;;;;;5.43;100.00;97370.97;5091132;28;20048;-65
2020/12/28 09:23:43;;;;;;;12.15;1.42;;;;;;;5.47;100.00;97387.44;5089819;28;20466;-64
2020/12/28 09:26:08;;;;;;;8.38;0.85;;;;;;;5.51;100.00;97393.06;5091471;28;20119;-63
2020/12/28 09:28:34;;;;;;;8.00;1.35;;;;;;;5.55;100.00;97386.75;5091098;28;20151;-64
2020/12/28 09:30:59;;;;;;;3.85;1.23;;;;;;;5.63;100.00;97391.50;5091281;28;20048;-64
2020/12/28 09:33:25;;;;;;;14.38;2.30;;;;;;;5.69;100.00;97387.63;5091101;28;20447;-64
2020/12/28 09:35:51;;;;;;;9.30;1.42;;;;;;;5.75;100.00;97389.16;5091734;28;20139;-64
2020/12/28 09:38:16;;;;;;;8.63;1.50;;;;;;;5.82;100.00;97409.63;5095175;28;20040;-63
2020/12/28 09:40:42;;;;;;;10.07;1.10;;;;;;;5.90;100.00;97417.09;5095466;28;20036;-63
2020/12/28 09:43:07;;;;;;;8.60;1.10;;;;;;;6.01;100.00;97407.72;5095038;28;20044;-65
2020/12/28 09:45:38;;;;;;;11.48;1.25;;;;;;;6.09;100.00;97415.19;5095043;28;20413;-64
2020/12/28 09:48:05;;;;;;;8.88;1.65;;;;;;;6.23;100.00;97407.88;5094923;28;20043;-64
2020/12/28 09:50:30;;;;;;;12.18;1.30;;;;;;;6.38;100.00;97414.13;5094926;28;20047;-64
2020/12/28 09:52:56;;;;;;;9.00;1.30;;;;;;;6.44;100.00;97416.44;5094781;28;20043;-65
2020/12/28 09:55:22;;;;;;;5.93;1.20;;;;;;;6.55;100.00;97422.47;5094885;28;20078;-65
2020/12/28 09:57:48;;;;;;;9.48;1.35;;;;;;;6.63;100.00;97440.78;5094571;28;20075;-64
2020/12/28 10:00:17;;;;;;;7.50;0.98;;;;;;;6.72;100.00;97421.88;5094739;28;20063;-64
2020/12/28 10:02:43;;;;;;;3.88;1.13;;;;;;;6.78;100.00;97421.50;5094701;28;20147;-64
2020/12/28 10:05:09;;;;;;;9.85;1.48;;;;;;;6.86;100.00;97434.34;5094502;28;20540;-64
2020/12/28 10:07:37;;;;;;;10.48;1.52;;;;;;;6.94;100.00;97440.97;5094444;28;20119;-65
2020/12/28 10:10:06;;;;;;;7.75;1.40;;;;;;;7.01;100.00;97437.88;5094312;28;20085;-64
2020/12/28 10:12:32;;;;;;;4.85;1.58;;;;;;;7.08;100.00;97433.63;5094380;28;20036;-65
2020/12/28 10:14:58;;;;;;;15.80;1.88;;;;;;;7.13;100.00;97441.69;5094294;28;20050;-65
2020/12/28 10:17:24;;;;;;;14.02;1.65;;;;;;;7.15;100.00;97444.91;5094380;28;20127;-64
2020/12/28 10:19:49;;;;;;;3.97;1.02;;;;;;;7.19;100.00;97440.47;5094239;28;20078;-65
2020/12/28 10:22:15;;;;;;;7.68;1.30;;;;;;;7.26;100.00;97448.19;5093834;28;20048;-65
2020/12/28 10:24:40;;;;;;;8.52;1.02;;;;;;;7.24;100.00;97456.63;5094026;28;20032;-65
2020/12/28 10:27:06;;;;;;;11.20;1.30;;;;;;;7.27;100.00;97457.94;5094043;28;20058;-64
2020/12/28 10:29:32;;;;;;;8.07;1.40;;;;;;;7.31;100.00;97477.94;5093956;28;20474;-64
2020/12/28 10:31:58;;;;;;;9.20;1.60;;;;;;;7.33;100.00;97485.78;5094105;28;20036;-64
2020/12/28 10:34:26;;;;;;;13.32;2.50;;;;;;;7.35;100.00;97484.38;5093896;28;20031;-64
2020/12/28 10:36:52;;;;;;;12.45;1.50;;;;;;;7.34;100.00;97499.06;5093877;28;20044;-64
2020/12/28 10:39:18;;;;;;;10.85;1.42;;;;;;;7.36;100.00;97496.03;5093809;28;20092;-64
2020/12/28 10:41:44;;;;;;;7.03;1.08;;;;;;;7.37;100.00;97493.00;5093806;28;20507;-64
2020/12/28 10:44:10;;;;;;;6.53;0.93;;;;;;;7.33;100.00;97492.03;5093680;28;20028;-64
2020/12/28 10:46:37;;;;;;;5.68;0.95;;;;;;;7.25;100.00;97506.28;5125841;27;20036;-64
2020/12/28 10:49:07;;;;;;;11.98;1.20;;;;;;;7.18;100.00;97522.19;5093598;28;20428;-65
2020/12/28 10:51:34;;;;;;;5.93;1.10;;;;;;;7.07;100.00;97521.56;5093837;28;20495;-65
2020/12/28 10:54:03;;;;;;;6.30;0.93;;;;;;;7.03;100.00;97530.59;5093916;28;20059;-64
2020/12/28 10:56:30;;;;;;;4.32;1.10;;;;;;;6.98;100.00;97549.69;5093439;28;20036;-64
2020/12/28 10:58:57;;;;;;;13.45;2.65;;;;;;;6.90;100.00;97549.25;5093267;28;20044;-64
2020/12/28 11:01:25;;;;;;;4.32;1.73;;;;;;;6.89;100.00;97558.50;5093401;28;20067;-65
2020/12/28 11:03:52;;;;;;;8.38;0.98;;;;;;;6.86;100.00;97564.53;5093395;28;20176;-64
2020/12/28 11:06:23;;;;;;;8.95;1.92;;;;;;;6.88;100.00;97567.75;5093394;28;20036;-65
2020/12/28 11:08:51;;;;;;;11.35;1.23;;;;;;;6.91;100.00;97560.91;5093440;28;20086;-65
2020/12/28 11:11:17;;;;;;;10.35;1.98;;;;;;;7.15;100.00;97560.78;5093158;28;20039;-65
2020/12/28 11:13:46;;;;;;;7.68;1.42;;;;;;;7.17;100.00;97563.97;5093135;28;20036;-64
2020/12/28 11:16:14;;;;;;;8.85;1.98;;;;;;;7.22;100.00;97555.75;5093168;28;20119;-64
2020/12/28 11:18:40;;;;;;;12.80;1.77;;;;;;;7.24;100.00;97564.38;5092998;28;20521;-64
2020/12/28 11:21:10;;;;;;;11.40;2.22;;;;;;;7.26;100.00;97562.97;5091698;28;20036;-65
2020/12/28 11:26:26;;;;;;;6.88;1.05;;;;;;;7.42;100.00;97555.34;5093040;28;20059;-64
2020/12/28 11:28:51;;;;;;;9.98;2.50;;;;;;;7.50;100.00;97559.28;5092667;28;20036;-65
2020/12/28 11:31:18;;;;;;;5.25;1.23;;;;;;;7.64;100.00;97575.56;5092828;28;20036;-65